Time;durP1;ratioP1;P1;durP2;ratioP2;P2;SDS_P1;SDS_P2;PMS_P1;PMS_P2;Temp;Humidity;BMP_temperature;BMP_pressure;BME280_temperature;BME280_humidity;BME280_pressure;Samples;Min_cycle;Max_cycle;Signal;HPM_P1;HPM_P2
2022/05/05 00:01:32;;;;;;;;;;;;;;;8.50;38.30;101023.95;85646;1336;22485;-76
2022/05/05 00:03:38;;;;;;;;;;;;;;;8.50;38.39;101024.63;85552;1339;23122;-76
2022/05/05 00:05:42;;;;;;;;;;;;;;;8.49;38.36;101024.48;85661;1336;23182;-76
2022/05/05 00:07:47;;;;;;;;;;;;;;;8.47;38.44;101019.83;85556;1339;22657;-75
2022/05/05 00:14:23;;;;;;;;;;;;;;;8.44;38.54;101017.45;85500;1339;22485;-76
2022/05/05 00:14:52;;;;;;;;;;;;;;;8.44;38.66;101016.92;85658;1336;23142;-76
2022/05/05 00:16:57;;;;;;;;;;;;;;;8.44;38.66;101018.15;85545;1335;23166;-76
2022/05/05 00:19:02;;;;;;;;;;;;;;;8.44;38.68;101019.72;85649;1336;22461;-76
2022/05/05 00:21:06;;;;;;;;;;;;;;;8.42;38.98;101014.69;85571;1335;22922;-76
2022/05/05 00:23:11;;;;;;;;;;;;;;;8.42;38.95;101017.14;85556;1339;22634;-76
2022/05/05 00:25:16;;;;;;;;;;;;;;;8.43;39.10;101013.30;85560;1337;22489;-76
2022/05/05 00:27:22;;;;;;;;;;;;;;;8.45;39.05;101012.05;85660;1339;23141;-76
2022/05/05 00:29:27;;;;;;;;;;;;;;;8.45;39.06;101006.46;85690;1336;22547;-76
2022/05/05 00:31:34;;;;;;;;;;;;;;;8.47;39.16;101004.34;85557;1339;22524;-76
2022/05/05 00:33:39;;;;;;;;;;;;;;;8.51;39.27;101010.35;85573;1340;23233;-76
2022/05/05 00:35:43;;;;;;;;;;;;;;;8.57;39.14;101014.77;85564;1339;22499;-77
2022/05/05 00:37:48;;;;;;;;;;;;;;;8.62;39.11;101009.61;85654;1339;22522;-75
2022/05/05 00:39:52;;;;;;;;;;;;;;;8.66;39.03;101014.23;85665;1336;23033;-76
2022/05/05 00:41:57;;;;;;;;;;;;;;;8.69;38.88;101012.27;85556;1341;22642;-76
2022/05/05 00:44:02;;;;;;;;;;;;;;;8.70;39.11;101015.36;85673;1337;22579;-76
2022/05/05 00:46:06;;;;;;;;;;;;;;;8.72;38.92;101012.73;85681;1339;22527;-76
2022/05/05 00:48:14;;;;;;;;;;;;;;;8.74;38.68;101015.65;85557;1341;23193;-76
2022/05/05 00:50:20;;;;;;;;;;;;;;;8.75;38.68;101009.89;85568;1339;22594;-77
2022/05/05 00:52:28;;;;;;;;;;;;;;;8.76;38.70;101012.98;85490;1339;23282;-77
2022/05/05 00:54:32;;;;;;;;;;;;;;;8.76;38.79;101013.85;85661;1336;22559;-76
2022/05/05 00:56:37;;;;;;;;;;;;;;;8.77;38.76;101010.72;85569;1338;23371;-78
2022/05/05 00:58:45;;;;;;;;;;;;;;;8.77;38.73;101011.77;85659;1339;22538;-75
2022/05/05 01:00:49;;;;;;;;;;;;;;;8.78;38.62;101011.58;84152;1338;1002926;-77
2022/05/05 01:02:54;;;;;;;;;;;;;;;8.78;38.58;101011.91;85670;1339;23175;-76
2022/05/05 01:04:58;;;;;;;;;;;;;;;8.78;38.55;101008.09;85598;1338;23114;-75
2022/05/05 01:07:03;;;;;;;;;;;;;;;8.77;38.63;101010.55;85680;1336;22582;-76
2022/05/05 01:09:08;;;;;;;;;;;;;;;8.76;38.65;101014.55;85578;1341;22985;-76
2022/05/05 01:11:12;;;;;;;;;;;;;;;8.73;38.54;101006.61;85590;1337;22552;-78
2022/05/05 01:13:17;;;;;;;;;;;;;;;8.71;38.65;101008.05;85661;1339;23138;-77
2022/05/05 01:15:21;;;;;;;;;;;;;;;8.69;38.62;101009.48;85683;1336;22585;-77
2022/05/05 01:17:26;;;;;;;;;;;;;;;8.67;38.55;101008.65;85568;1339;23234;-77
2022/05/05 01:19:32;;;;;;;;;;;;;;;8.65;38.73;101005.73;84249;1339;1002825;-76
2022/05/05 01:21:36;;;;;;;;;;;;;;;8.65;38.55;101007.99;85666;1336;23161;-76
2022/05/05 01:23:40;;;;;;;;;;;;;;;8.65;38.73;101008.87;85560;1339;22491;-76
2022/05/05 01:28:11;;;;;;;;;;;;;;;8.65;38.62;101004.16;85576;1341;23221;-77
2022/05/05 01:30:16;;;;;;;;;;;;;;;8.65;38.71;101007.64;85569;1339;22509;-77
2022/05/05 01:32:20;;;;;;;;;;;;;;;8.65;38.67;101010.43;85672;1336;22505;-76
2022/05/05 01:34:26;;;;;;;;;;;;;;;8.64;38.58;101007.66;84971;1339;1003081;-77
2022/05/05 01:36:31;;;;;;;;;;;;;;;8.65;38.59;101008.67;85567;1341;22681;-76
2022/05/05 01:38:40;;;;;;;;;;;;;;;8.65;38.63;101009.56;85662;1339;22455;-76
2022/05/05 01:40:46;;;;;;;;;;;;;;;8.65;38.65;101012.87;85686;1336;23042;-75
2022/05/05 01:42:51;;;;;;;;;;;;;;;8.66;38.75;101013.89;85669;1336;22556;-76
2022/05/05 01:44:55;;;;;;;;;;;;;;;8.68;38.85;101009.70;85567;1340;23128;-77
2022/05/05 01:47:03;;;;;;;;;;;;;;;8.69;38.68;101011.91;85654;1339;22527;-76
2022/05/05 01:49:10;;;;;;;;;;;;;;;8.71;38.62;101012.58;85561;1341;22677;-76
2022/05/05 01:51:15;;;;;;;;;;;;;;;8.74;38.51;101011.83;85553;1339;22448;-76
2022/05/05 01:53:19;;;;;;;;;;;;;;;8.76;38.50;101011.25;85658;1337;22493;-76
2022/05/05 01:55:24;;;;;;;;;;;;;;;8.80;38.53;101009.96;85660;1336;22470;-76
2022/05/05 01:57:29;;;;;;;;;;;;;;;8.82;38.50;101012.36;85674;1339;22508;-76
2022/05/05 01:59:34;;;;;;;;;;;;;;;8.83;38.37;101009.38;85587;1341;23122;-76
2022/05/05 02:01:38;;;;;;;;;;;;;;;8.84;38.54;101010.73;85560;1340;23176;-76
2022/05/05 02:03:43;;;;;;;;;;;;;;;8.86;38.37;101014.35;85571;1341;22540;-76
2022/05/05 02:05:48;;;;;;;;;;;;;;;8.87;38.40;101011.91;85671;1336;22581;-77
2022/05/05 02:07:53;;;;;;;;;;;;;;;8.89;38.34;101012.39;85563;1341;22515;-76
2022/05/05 02:09:58;;;;;;;;;;;;;;;8.90;38.31;101011.67;85666;1339;23069;-77
2022/05/05 02:12:03;;;;;;;;;;;;;;;8.91;38.25;101009.04;85570;1338;22480;-79
2022/05/05 02:14:08;;;;;;;;;;;;;;;8.93;38.14;101005.86;85676;1336;22571;-76
2022/05/05 02:16:15;;;;;;;;;;;;;;;8.95;38.04;101006.85;85575;1337;23113;-76
2022/05/05 02:18:20;;;;;;;;;;;;;;;8.97;37.92;101007.86;85677;1339;23081;-77
2022/05/05 02:20:24;;;;;;;;;;;;;;;9.00;37.82;101004.32;85673;1339;23065;-77
2022/05/05 02:22:29;;;;;;;;;;;;;;;9.03;37.96;101007.40;85403;1339;23176;-77
2022/05/05 02:24:33;;;;;;;;;;;;;;;9.05;37.82;101007.33;85478;1338;23153;-77
2022/05/05 02:26:38;;;;;;;;;;;;;;;9.07;37.87;101004.34;85469;1338;22561;-77
2022/05/05 02:28:42;;;;;;;;;;;;;;;9.09;37.69;101003.77;85537;1338;23041;-76
2022/05/05 02:30:46;;;;;;;;;;;;;;;9.11;37.82;101003.39;85566;1337;23102;-75
2022/05/05 02:32:51;;;;;;;;;;;;;;;9.12;37.70;101002.48;85559;1340;23145;-76
2022/05/05 02:34:55;;;;;;;;;;;;;;;9.14;37.50;100994.95;85545;1339;23112;-76
2022/05/05 02:39:23;;;;;;;;;;;;;;;9.18;37.56;100996.27;85565;1339;23132;-76
2022/05/05 02:41:27;;;;;;;;;;;;;;;9.19;37.29;100993.63;85556;1339;23144;-76
2022/05/05 02:43:34;;;;;;;;;;;;;;;9.20;37.53;100996.56;85466;1339;22533;-77
2022/05/05 02:45:42;;;;;;;;;;;;;;;9.21;37.49;100992.89;85483;1336;23108;-76
2022/05/05 02:47:47;;;;;;;;;;;;;;;9.22;37.44;100992.35;85561;1338;22501;-76
2022/05/05 02:49:51;;;;;;;;;;;;;;;9.23;37.62;100992.48;85562;1341;22485;-76
2022/05/05 02:51:56;;;;;;;;;;;;;;;9.24;37.52;100990.56;85539;1338;22444;-75
2022/05/05 02:56:23;;;;;;;;;;;;;;;9.26;37.33;100991.73;85554;1338;22627;-77
2022/05/05 02:58:29;;;;;;;;;;;;;;;9.26;37.38;100991.73;85552;1339;23151;-76
2022/05/05 03:00:33;;;;;;;;;;;;;;;9.27;37.39;100995.54;85562;1337;23094;-77
2022/05/05 03:02:41;;;;;;;;;;;;;;;9.28;37.38;100999.19;85561;1341;22506;-76
2022/05/05 03:04:46;;;;;;;;;;;;;;;9.28;37.43;101000.55;85569;1338;22480;-76
2022/05/05 03:06:51;;;;;;;;;;;;;;;9.29;37.40;101005.58;85576;1339;23262;-76
2022/05/05 03:08:58;;;;;;;;;;;;;;;9.30;37.17;101002.78;85552;1337;22474;-75
2022/05/05 03:11:06;;;;;;;;;;;;;;;9.30;37.33;101003.30;85555;1339;22487;-77
2022/05/05 03:13:10;;;;;;;;;;;;;;;9.31;37.32;101001.03;85534;1333;22714;-75
2022/05/05 03:15:15;;;;;;;;;;;;;;;9.32;37.56;101001.54;85576;1339;22593;-76
2022/05/05 03:17:22;;;;;;;;;;;;;;;9.32;37.54;100999.45;85590;1339;23115;-76
2022/05/05 03:19:28;;;;;;;;;;;;;;;9.33;37.45;100999.42;85505;1340;23164;-76
2022/05/05 03:21:32;;;;;;;;;;;;;;;9.34;37.31;100999.05;85743;1336;23080;-76
2022/05/05 03:23:37;;;;;;;;;;;;;;;9.34;37.29;100999.92;85040;1336;1002383;-76
2022/05/05 03:25:45;;;;;;;;;;;;;;;9.34;37.20;101001.48;85837;1331;22488;-76
2022/05/05 03:27:50;;;;;;;;;;;;;;;9.35;37.28;101005.45;85690;1338;22972;-76
2022/05/05 03:29:55;;;;;;;;;;;;;;;9.35;37.24;101005.96;85756;1338;23261;-76
2022/05/05 03:31:59;;;;;;;;;;;;;;;9.36;37.16;101003.69;85762;1336;23097;-76
2022/05/05 03:34:04;;;;;;;;;;;;;;;9.36;37.24;101003.52;85575;1339;23209;-76
2022/05/05 03:36:12;;;;;;;;;;;;;;;9.36;37.28;100999.52;84998;1338;1002587;-75
2022/05/05 03:38:20;;;;;;;;;;;;;;;9.36;37.28;100999.52;85707;1336;22725;-77
2022/05/05 03:40:25;;;;;;;;;;;;;;;9.37;37.34;101007.00;85674;1337;22475;-76
2022/05/05 03:42:33;;;;;;;;;;;;;;;9.37;37.20;101009.96;85541;1339;23191;-76
2022/05/05 03:44:38;;;;;;;;;;;;;;;9.38;37.19;101012.02;85671;1337;22587;-76
2022/05/05 03:46:42;;;;;;;;;;;;;;;9.39;37.26;101017.21;85652;1339;23216;-76
2022/05/05 03:48:47;;;;;;;;;;;;;;;9.40;37.36;101018.05;85548;1337;22492;-76
2022/05/05 03:50:51;;;;;;;;;;;;;;;9.40;37.12;101014.05;85676;1336;23075;-76
2022/05/05 03:52:56;;;;;;;;;;;;;;;9.40;37.25;101019.09;85682;1339;22579;-76
2022/05/05 03:55:01;;;;;;;;;;;;;;;9.40;37.33;101014.73;85676;1336;22464;-77
2022/05/05 03:57:09;;;;;;;;;;;;;;;9.42;37.37;101021.33;85547;1341;22544;-77
2022/05/05 03:59:16;;;;;;;;;;;;;;;9.43;37.44;101015.74;85500;1339;23128;-78
2022/05/05 04:01:24;;;;;;;;;;;;;;;9.42;37.43;101014.19;85684;1336;23159;-77
2022/05/05 04:03:32;;;;;;;;;;;;;;;9.43;37.47;101016.41;85548;1340;22553;-77
2022/05/05 04:05:37;;;;;;;;;;;;;;;9.45;37.48;101016.89;85649;1339;22510;-78
2022/05/05 04:07:41;;;;;;;;;;;;;;;9.46;37.57;101018.81;85679;1339;22522;-77
2022/05/05 04:09:49;;;;;;;;;;;;;;;9.46;37.49;101019.69;85686;1339;23054;-78
2022/05/05 04:11:54;;;;;;;;;;;;;;;9.47;37.43;101022.97;85672;1337;22485;-77
2022/05/05 04:13:59;;;;;;;;;;;;;;;9.46;37.53;101020.71;85495;1339;22534;-77
2022/05/05 04:16:04;;;;;;;;;;;;;;;9.47;37.60;101016.86;85570;1339;22586;-76
2022/05/05 04:18:08;;;;;;;;;;;;;;;9.47;37.66;101018.09;85675;1332;23199;-76
2022/05/05 04:20:13;;;;;;;;;;;;;;;9.46;37.67;101019.67;85683;1339;22606;-77
2022/05/05 04:22:22;;;;;;;;;;;;;;;9.45;37.64;101017.06;85655;1336;23078;-77
2022/05/05 04:24:27;;;;;;;;;;;;;;;9.45;37.63;101018.28;85561;1338;22516;-77
2022/05/05 04:26:34;;;;;;;;;;;;;;;9.46;37.77;101018.80;85665;1339;23083;-77
2022/05/05 04:28:39;;;;;;;;;;;;;;;9.46;37.77;101017.59;85692;1339;23399;-77
2022/05/05 04:30:43;;;;;;;;;;;;;;;9.46;37.80;101020.54;85684;1339;23085;-76
2022/05/05 04:32:48;;;;;;;;;;;;;;;9.45;37.80;101022.11;85556;1340;23009;-77
2022/05/05 04:34:54;;;;;;;;;;;;;;;9.46;37.81;101022.46;85673;1336;23277;-76
2022/05/05 04:36:58;;;;;;;;;;;;;;;9.46;37.77;101020.02;85569;1337;22494;-76
2022/05/05 04:39:03;;;;;;;;;;;;;;;9.47;37.86;101023.65;85682;1336;22452;-76
2022/05/05 04:41:08;;;;;;;;;;;;;;;9.48;38.01;101022.39;85503;1340;23152;-76
2022/05/05 04:43:12;;;;;;;;;;;;;;;9.49;37.96;101020.98;85648;1336;22446;-77
2022/05/05 04:45:17;;;;;;;;;;;;;;;9.49;37.98;101023.76;85567;1339;23039;-77
2022/05/05 04:47:21;;;;;;;;;;;;;;;9.49;37.93;101024.45;85669;1336;23149;-76
2022/05/05 04:49:26;;;;;;;;;;;;;;;9.49;38.00;101021.52;85670;1336;22482;-76
2022/05/05 04:51:31;;;;;;;;;;;;;;;9.49;38.12;101023.23;85673;1339;23134;-76
2022/05/05 04:53:35;;;;;;;;;;;;;;;9.51;38.07;101021.80;85678;1336;22522;-76
2022/05/05 04:55:40;;;;;;;;;;;;;;;9.52;38.24;101021.77;85561;1338;22567;-77
2022/05/05 04:57:44;;;;;;;;;;;;;;;9.53;38.13;101022.45;84954;1339;1003078;-76
2022/05/05 04:59:49;;;;;;;;;;;;;;;9.56;38.16;101022.05;85575;1340;22980;-76
2022/05/05 05:01:53;;;;;;;;;;;;;;;9.58;38.13;101021.13;85679;1336;23161;-76
2022/05/05 05:03:58;;;;;;;;;;;;;;;9.60;38.13;101025.44;83449;1337;3105821;-76
2022/05/05 05:06:03;;;;;;;;;;;;;;;9.64;38.25;101025.86;85542;1338;23041;-76
2022/05/05 05:08:11;;;;;;;;;;;;;;;9.68;38.26;101027.68;83436;1338;1002768;-75
2022/05/05 05:10:20;;;;;;;;;;;;;;;9.73;38.21;101028.79;85570;1339;22513;-77
2022/05/05 05:12:27;;;;;;;;;;;;;;;9.79;38.31;101032.47;85682;1339;22447;-77
2022/05/05 05:14:32;;;;;;;;;;;;;;;9.86;38.27;101030.73;85565;1339;22692;-77
2022/05/05 05:16:36;;;;;;;;;;;;;;;9.95;38.38;101032.95;85676;1336;22534;-75
2022/05/05 05:18:41;;;;;;;;;;;;;;;10.02;38.07;101032.77;85566;1337;23132;-74
2022/05/05 05:20:45;;;;;;;;;;;;;;;10.07;38.02;101032.82;85577;1339;22482;-78
2022/05/05 05:22:53;;;;;;;;;;;;;;;10.13;38.06;101031.80;85549;1337;23343;-77
2022/05/05 05:24:58;;;;;;;;;;;;;;;10.18;38.04;101030.27;85685;1338;23085;-78
2022/05/05 05:27:08;;;;;;;;;;;;;;;10.25;38.11;101034.48;85666;1336;23181;-77
2022/05/05 05:29:13;;;;;;;;;;;;;;;10.30;37.72;101029.83;85479;1339;23030;-77
2022/05/05 05:31:17;;;;;;;;;;;;;;;10.33;37.79;101030.60;85551;1338;23094;-76
2022/05/05 05:33:22;;;;;;;;;;;;;;;10.38;37.85;101036.77;85676;1336;22497;-77
2022/05/05 05:35:29;;;;;;;;;;;;;;;10.43;37.77;101039.43;85664;1339;22494;-77
2022/05/05 05:37:34;;;;;;;;;;;;;;;10.47;37.75;101038.96;85471;1339;23195;-77
2022/05/05 05:39:39;;;;;;;;;;;;;;;10.54;37.82;101038.95;84950;1336;1003095;-78
2022/05/05 05:41:46;;;;;;;;;;;;;;;10.60;37.76;101039.85;85663;1336;22640;-77
2022/05/05 05:43:51;;;;;;;;;;;;;;;10.68;37.54;101042.92;85659;1339;23245;-77
2022/05/05 05:45:56;;;;;;;;;;;;;;;10.76;37.58;101040.98;85539;1339;22532;-77
2022/05/05 05:48:00;;;;;;;;;;;;;;;10.87;37.56;101036.99;85668;1336;23224;-78
2022/05/05 05:50:12;;;;;;;;;;;;;;;11.00;37.61;101038.34;85409;1340;22615;-77
2022/05/05 05:52:19;;;;;;;;;;;;;;;11.18;37.35;101039.76;85664;1339;23147;-76
2022/05/05 05:54:27;;;;;;;;;;;;;;;11.32;37.13;101034.08;85559;1341;22544;-75
2022/05/05 05:56:35;;;;;;;;;;;;;;;11.49;37.31;101030.03;85681;1336;22654;-75
2022/05/05 05:58:39;;;;;;;;;;;;;;;11.73;37.04;101032.98;85678;1336;22460;-76
2022/05/05 06:00:47;;;;;;;;;;;;;;;11.92;36.72;101029.59;85545;1337;22478;-76
2022/05/05 06:05:14;;;;;;;;;;;;;;;12.46;36.72;101030.02;85477;1339;23169;-77
2022/05/05 06:07:18;;;;;;;;;;;;;;;12.84;36.37;101029.87;85552;1337;22642;-77
2022/05/05 06:09:24;;;;;;;;;;;;;;;13.53;36.70;101024.81;85566;1338;23284;-77
2022/05/05 06:11:28;;;;;;;;;;;;;;;14.40;35.75;101028.89;85563;1339;22441;-77
2022/05/05 06:13:33;;;;;;;;;;;;;;;15.27;34.27;101026.39;85668;1336;23088;-77
2022/05/05 06:15:41;;;;;;;;;;;;;;;15.97;33.25;101023.04;85551;1339;23209;-77
2022/05/05 06:17:45;;;;;;;;;;;;;;;16.40;32.32;101021.88;85539;1341;23235;-77
2022/05/05 06:19:50;;;;;;;;;;;;;;;16.64;31.38;101025.08;85556;1337;22504;-77
2022/05/05 06:21:55;;;;;;;;;;;;;;;16.55;30.67;101026.20;85534;1339;23139;-76
2022/05/05 06:24:00;;;;;;;;;;;;;;;16.38;30.85;101025.73;85574;1333;22466;-77
2022/05/05 06:26:07;;;;;;;;;;;;;;;16.20;30.58;101023.81;85549;1339;22595;-77
2022/05/05 06:28:12;;;;;;;;;;;;;;;15.96;30.71;101022.37;85550;1339;22506;-76
2022/05/05 06:30:17;;;;;;;;;;;;;;;15.68;31.08;101024.11;85570;1339;23127;-76
2022/05/05 06:32:21;;;;;;;;;;;;;;;15.45;31.41;101024.66;85553;1339;23251;-77
2022/05/05 06:34:26;;;;;;;;;;;;;;;15.42;31.93;101029.06;85547;1338;23055;-77
2022/05/05 06:36:33;;;;;;;;;;;;;;;15.37;31.51;101025.94;85549;1339;22529;-76
2022/05/05 06:38:37;;;;;;;;;;;;;;;15.41;32.03;101028.22;85571;1341;23071;-76
2022/05/05 06:40:42;;;;;;;;;;;;;;;15.65;32.46;101027.23;85577;1338;22452;-77
2022/05/05 06:42:48;;;;;;;;;;;;;;;16.09;32.00;101027.38;85559;1339;23041;-77
2022/05/05 06:44:53;;;;;;;;;;;;;;;16.76;30.97;101023.90;85577;1339;23040;-77
2022/05/05 06:46:59;;;;;;;;;;;;;;;17.20;30.74;101023.11;85454;1340;23309;-78
2022/05/05 06:49:05;;;;;;;;;;;;;;;17.90;29.89;101026.02;85575;1337;22441;-77
2022/05/05 06:51:09;;;;;;;;;;;;;;;18.21;29.17;101024.23;85697;1336;22461;-77
2022/05/05 06:53:14;;;;;;;;;;;;;;;18.32;28.80;101026.95;85697;1333;22607;-76
2022/05/05 06:55:19;;;;;;;;;;;;;;;18.23;28.68;101029.57;85705;1337;22565;-76
2022/05/05 06:57:23;;;;;;;;;;;;;;;18.08;28.68;101029.40;85547;1338;23191;-77
2022/05/05 06:59:28;;;;;;;;;;;;;;;17.79;28.38;101034.59;85553;1339;23165;-77
2022/05/05 07:01:53;;;;;;;;;;;;;;;17.50;29.12;101035.73;85499;1339;22590;-77
2022/05/05 07:06:20;;;;;;;;;;;;;;;17.33;30.00;101041.27;85492;1336;23286;-76
2022/05/05 07:08:27;;;;;;;;;;;;;;;17.24;30.16;101042.09;85701;1336;23201;-76
2022/05/05 07:12:58;;;;;;;;;;;;;;;17.25;30.27;101040.98;85715;1340;23168;-75
2022/05/05 07:15:02;;;;;;;;;;;;;;;17.20;30.37;101040.56;85725;1340;23321;-77
2022/05/05 07:17:08;;;;;;;;;;;;;;;17.25;30.69;101040.13;85571;1334;22494;-77
2022/05/05 07:19:15;;;;;;;;;;;;;;;17.28;30.43;101033.91;85553;1339;22496;-77
2022/05/05 07:21:22;;;;;;;;;;;;;;;17.25;30.37;101031.84;85713;1339;22486;-76
2022/05/05 07:23:26;;;;;;;;;;;;;;;17.18;30.45;101029.77;85570;1341;22444;-77
2022/05/05 07:25:31;;;;;;;;;;;;;;;17.16;30.73;101028.96;85564;1338;22450;-77
2022/05/05 07:27:39;;;;;;;;;;;;;;;17.10;30.71;101034.23;85575;1339;23282;-77
2022/05/05 07:29:44;;;;;;;;;;;;;;;17.05;30.67;101030.64;85421;1339;22505;-78
2022/05/05 07:31:54;;;;;;;;;;;;;;;16.94;30.51;101036.14;85579;1338;22512;-77
2022/05/05 07:34:03;;;;;;;;;;;;;;;16.79;30.75;101032.73;85580;1338;22937;-76
2022/05/05 07:36:10;;;;;;;;;;;;;;;16.81;31.21;101033.52;85570;1339;23082;-78
2022/05/05 07:38:18;;;;;;;;;;;;;;;16.94;31.21;101037.91;85553;1338;23150;-76
2022/05/05 07:40:23;;;;;;;;;;;;;;;17.13;31.37;101035.14;85572;1339;23177;-77
2022/05/05 07:42:31;;;;;;;;;;;;;;;17.74;31.40;101037.70;85688;1336;22486;-77
2022/05/05 07:44:35;;;;;;;;;;;;;;;17.95;30.16;101032.80;85570;1339;22497;-76
2022/05/05 07:46:43;;;;;;;;;;;;;;;17.94;29.92;101034.45;85715;1336;22514;-77
2022/05/05 07:48:52;;;;;;;;;;;;;;;18.10;30.62;101032.09;85699;1336;22488;-79
2022/05/05 07:50:58;;;;;;;;;;;;;;;18.48;30.16;101032.16;85565;1339;23011;-75
2022/05/05 07:53:03;;;;;;;;;;;;;;;18.75;29.51;101030.85;85708;1336;22458;-77
2022/05/05 07:55:10;;;;;;;;;;;;;;;18.95;29.11;101027.84;85702;1340;22487;-76
2022/05/05 07:57:20;;;;;;;;;;;;;;;19.27;29.13;101025.98;85572;1341;22628;-77
2022/05/05 07:59:25;;;;;;;;;;;;;;;19.69;28.16;101025.29;85721;1336;23163;-77
2022/05/05 08:01:33;;;;;;;;;;;;;;;19.99;28.01;101021.48;85511;1338;22519;-77
2022/05/05 08:03:37;;;;;;;;;;;;;;;20.35;27.62;101020.45;85479;1339;23072;-77
2022/05/05 08:05:42;;;;;;;;;;;;;;;20.66;27.56;101024.75;85706;1339;23152;-77
2022/05/05 08:07:51;;;;;;;;;;;;;;;20.87;26.73;101022.02;85514;1339;23162;-77
2022/05/05 08:09:56;;;;;;;;;;;;;;;21.18;27.21;101016.08;85721;1339;22492;-76
2022/05/05 08:12:06;;;;;;;;;;;;;;;21.79;26.70;101021.52;85555;1339;22559;-76
2022/05/05 08:14:11;;;;;;;;;;;;;;;21.88;25.49;101021.27;85672;1336;22580;-76
2022/05/05 08:16:17;;;;;;;;;;;;;;;21.84;26.20;101018.02;85531;1333;22712;-76
2022/05/05 08:21:09;;;;;;;;;;;;;;;23.69;24.75;101010.55;85452;1339;23177;-77
2022/05/05 08:23:16;;;;;;;;;;;;;;;24.53;24.21;101013.08;85671;1336;23230;-78
2022/05/05 08:30:15;;;;;;;;;;;;;;;26.04;21.79;101011.13;85565;1338;22524;-76
2022/05/05 08:32:23;;;;;;;;;;;;;;;26.51;21.32;101006.64;85563;1337;23146;-76
2022/05/05 08:34:28;;;;;;;;;;;;;;;27.00;21.34;101003.67;85701;1336;23045;-78
2022/05/05 08:36:33;;;;;;;;;;;;;;;27.50;20.55;101004.32;85568;1339;23158;-77
2022/05/05 08:38:38;;;;;;;;;;;;;;;27.64;19.92;101001.98;85693;1336;22491;-77
2022/05/05 08:40:45;;;;;;;;;;;;;;;27.72;20.12;101000.13;85679;1336;23215;-74
2022/05/05 08:42:50;;;;;;;;;;;;;;;27.85;19.70;101000.70;85549;1339;23018;-90
2022/05/05 08:44:55;;;;;;;;;;;;;;;27.97;20.02;100993.90;85529;1339;22496;-78
2022/05/05 08:47:00;;;;;;;;;;;;;;;28.44;19.90;100999.48;85574;1338;23099;-77
2022/05/05 08:49:08;;;;;;;;;;;;;;;28.63;18.73;101001.55;85694;1340;22593;-77
2022/05/05 08:51:15;;;;;;;;;;;;;;;28.63;19.24;100999.86;85563;1339;23300;-75
2022/05/05 08:53:24;;;;;;;;;;;;;;;28.83;19.04;101000.42;85685;1336;23121;-76
2022/05/05 08:55:28;;;;;;;;;;;;;;;29.03;19.17;100997.98;85716;1339;22644;-88
2022/05/05 08:57:33;;;;;;;;;;;;;;;29.15;18.99;101004.77;85555;1338;23142;-91
2022/05/05 08:59:39;;;;;;;;;;;;;;;29.26;18.27;101000.27;85686;1333;22626;-76
2022/05/05 09:01:51;;;;;;;;;;;;;;;29.16;18.12;100998.36;85640;1336;23052;-71
2022/05/05 09:04:05;;;;;;;;;;;;;;;28.99;18.52;100995.81;85657;1339;22502;-74
2022/05/05 09:06:12;;;;;;;;;;;;;;;28.88;18.30;100999.30;85645;1339;22570;-76
2022/05/05 09:08:27;;;;;;;;;;;;;;;28.75;18.48;100999.12;85678;1336;22510;-76
2022/05/05 09:10:43;;;;;;;;;;;;;;;28.77;18.76;100998.69;85674;1336;22478;-78
2022/05/05 09:12:57;;;;;;;;;;;;;;;28.75;18.59;100999.95;85670;1339;22429;-79
2022/05/05 09:15:08;;;;;;;;;;;;;;;28.63;18.93;100998.89;85670;1340;22444;-73
2022/05/05 09:17:14;;;;;;;;;;;;;;;28.60;19.40;100995.88;85523;1339;23091;-75
2022/05/05 09:19:22;;;;;;;;;;;;;;;28.72;19.27;100999.77;85668;1340;22463;-77
2022/05/05 09:21:34;;;;;;;;;;;;;;;28.56;18.80;100999.31;85525;1337;23148;-80
2022/05/05 09:24:34;;;;;;;;;;;;;;;28.10;19.00;100994.48;85530;1339;22577;-79
2022/05/05 09:26:05;;;;;;;;;;;;;;;27.50;19.09;101004.52;85649;1336;23145;-75
2022/05/05 09:28:22;;;;;;;;;;;;;;;26.91;19.98;100997.16;85655;1336;22551;-76
2022/05/05 09:30:30;;;;;;;;;;;;;;;26.52;20.64;100997.73;85664;1340;22466;-86
2022/05/05 09:32:36;;;;;;;;;;;;;;;26.32;20.91;100995.46;85522;1339;22479;-81
2022/05/05 09:34:41;;;;;;;;;;;;;;;26.06;20.99;100995.29;85518;1339;23167;-80
2022/05/05 09:36:49;;;;;;;;;;;;;;;25.76;21.59;100995.19;85659;1340;22501;-79
2022/05/05 09:38:55;;;;;;;;;;;;;;;25.38;21.43;101000.58;85651;1336;23322;-78
2022/05/05 09:41:05;;;;;;;;;;;;;;;24.86;21.79;100997.69;85665;1339;23210;-76
2022/05/05 09:43:12;;;;;;;;;;;;;;;24.52;22.49;100996.09;85542;1337;23044;-76
2022/05/05 09:45:20;;;;;;;;;;;;;;;24.30;23.01;100990.98;85546;1339;23620;-77
2022/05/05 09:47:25;;;;;;;;;;;;;;;24.13;23.48;100987.95;85529;1337;22555;-77
2022/05/05 09:49:30;;;;;;;;;;;;;;;24.17;24.11;100987.05;85539;1339;23152;-78
2022/05/05 09:51:36;;;;;;;;;;;;;;;24.12;23.49;100979.64;85541;1339;22519;-78
2022/05/05 09:58:34;;;;;;;;;;;;;;;23.61;24.65;100980.75;85560;1340;23057;-78
2022/05/05 10:00:45;;;;;;;;;;;;;;;23.64;24.43;100989.79;85682;1336;22483;-76
2022/05/05 10:05:18;;;;;;;;;;;;;;;23.24;24.10;100984.84;85509;1339;22500;-77
2022/05/05 10:07:22;;;;;;;;;;;;;;;23.18;24.38;100983.20;85543;1337;23327;-76
2022/05/05 10:09:27;;;;;;;;;;;;;;;23.13;24.34;100988.04;85409;1338;23334;-79
2022/05/05 10:11:32;;;;;;;;;;;;;;;23.08;24.70;100979.77;85565;1334;22528;-79
2022/05/05 10:13:37;;;;;;;;;;;;;;;23.11;25.09;100983.43;85563;1338;23202;-80
2022/05/05 10:15:42;;;;;;;;;;;;;;;23.24;25.05;100980.45;85562;1339;22540;-73
2022/05/05 10:17:50;;;;;;;;;;;;;;;23.38;25.29;100977.48;85556;1339;22609;-77
2022/05/05 10:19:57;;;;;;;;;;;;;;;23.45;25.18;100975.45;85570;1338;23087;-77
2022/05/05 10:22:04;;;;;;;;;;;;;;;23.48;24.43;100973.60;85578;1339;22588;-76
2022/05/05 10:24:15;;;;;;;;;;;;;;;23.35;24.49;100975.27;85464;1339;23188;-79
2022/05/05 10:26:23;;;;;;;;;;;;;;;23.18;23.73;100977.16;85593;1337;23270;-79
2022/05/05 10:28:44;;;;;;;;;;;;;;;22.79;23.78;100975.51;85593;1340;22519;-78
2022/05/05 10:30:49;;;;;;;;;;;;;;;22.47;24.26;100973.58;85603;1337;22463;-76
2022/05/05 10:32:56;;;;;;;;;;;;;;;22.20;24.87;100969.48;85579;1339;23256;-76
2022/05/05 10:35:09;;;;;;;;;;;;;;;22.01;25.20;100964.85;85599;1339;22583;-76
2022/05/05 10:37:20;;;;;;;;;;;;;;;21.85;25.29;100970.66;85600;1338;22506;-76
2022/05/05 10:39:41;;;;;;;;;;;;;;;21.69;25.60;100966.40;85594;1341;22430;-76
2022/05/05 10:41:50;;;;;;;;;;;;;;;21.85;25.93;100964.44;85594;1341;22496;-78
2022/05/05 10:44:25;;;;;;;;;;;;;;;22.12;25.80;100966.32;85583;1339;22495;-78
2022/05/05 10:46:54;;;;;;;;;;;;;;;22.24;24.81;100970.77;85588;1338;22539;-76
2022/05/05 10:48:58;;;;;;;;;;;;;;;22.32;25.17;100962.45;85590;1338;22578;-77
2022/05/05 10:51:07;;;;;;;;;;;;;;;22.54;25.05;100961.23;85527;1338;23165;-78
2022/05/05 10:53:26;;;;;;;;;;;;;;;22.71;24.73;100958.66;85580;1340;22442;-77
2022/05/05 10:55:34;;;;;;;;;;;;;;;22.84;24.66;100959.77;85498;1338;23100;-77
2022/05/05 10:57:43;;;;;;;;;;;;;;;22.82;24.69;100953.56;85564;1338;22634;-77
2022/05/05 11:00:11;;;;;;;;;;;;;;;22.75;24.58;100952.00;85610;1335;22454;-76
2022/05/05 11:02:19;;;;;;;;;;;;;;;22.70;24.87;100951.49;85588;1338;22516;-76
2022/05/05 11:04:33;;;;;;;;;;;;;;;22.90;25.09;100950.58;85589;1337;23183;-76
2022/05/05 11:06:42;;;;;;;;;;;;;;;22.99;24.26;100951.33;85582;1340;23194;-76
2022/05/05 11:08:56;;;;;;;;;;;;;;;22.92;24.43;100951.89;85512;1339;22481;-84
2022/05/05 11:13:40;;;;;;;;;;;;;;;22.88;24.83;100951.83;85432;1339;22580;-89
2022/05/05 11:23:07;;;;;;;;;;;;;;;22.55;25.53;100949.44;85601;1338;22575;-74
2022/05/05 11:25:16;;;;;;;;;;;;;;;22.47;25.98;100954.05;85591;1339;23194;-73
2022/05/05 11:27:22;;;;;;;;;;;;;;;22.40;26.24;100952.92;85479;1338;23077;-84
2022/05/05 11:29:31;;;;;;;;;;;;;;;22.35;26.07;100948.34;85451;1336;22573;-83
2022/05/05 11:31:37;;;;;;;;;;;;;;;22.25;26.27;100951.14;85600;1336;22683;-83
2022/05/05 11:33:43;;;;;;;;;;;;;;;22.20;26.66;100955.02;85581;1339;23086;-81
2022/05/05 11:36:02;;;;;;;;;;;;;;;22.13;26.49;100954.67;85511;1338;22613;-76